Disclaimer

Please do not use the information listed here in-flight or in-navigation, as they are not provided to us by the airports but are provided by volunteers, so they might be outdated.

Search


Regions


Airport information page

Radio informations:
Tower (TWR) - 118.3 MHz
RDO - 6622 MHz

Airport informations:
Latitude: 13° 45' 43.95" S
Longitude: 065° 26' 06.57" W
Elevation: 472 feet - 144 meters
Operating hours: From sunrise to sunset (SR-SS)
Operating agency: Civil government, landing fees and diplomatic clearance may be required
Timezone: UTC-4
Fuel: N/A

Runway information:
14/32 - 5013 x 69 feet< - >1528 x 21 meters

Recent METARs:
SLSA 211600Z 33010KT 6000 VCSH BKN017 FEW023CB BKN200 28/25 Q1011
SLSA 211600Z 33010KT 6000 VCSH BKN017 FEW023CB BKN200 28/25 Q1011
SLSA 211700Z 32006KT 6000 VCSH BKN017 FEW023CB BKN200 28/25 Q1011

Airport on the map: